sensor_id;sensor_type;location;lat;lon;timestamp;pressure;altitude;pressure_sealevel;temperature
69857;BMP280;57147;53.582;10.112;2024-02-16T00:01:30;100835.53;;;11.44
69857;BMP280;57147;53.582;10.112;2024-02-16T00:06:30;100825.47;;;11.41
69857;BMP280;57147;53.582;10.112;2024-02-16T00:11:30;100826.56;;;11.40
69857;BMP280;57147;53.582;10.112;2024-02-16T00:16:30;100814.16;;;11.36
69857;BMP280;57147;53.582;10.112;2024-02-16T00:21:31;100808.66;;;11.32
69857;BMP280;57147;53.582;10.112;2024-02-16T00:26:31;100790.50;;;11.21
69857;BMP280;57147;53.582;10.112;2024-02-16T00:31:31;100785.00;;;11.17
69857;BMP280;57147;53.582;10.112;2024-02-16T00:36:31;100776.91;;;11.22
69857;BMP280;57147;53.582;10.112;2024-02-16T00:41:32;100783.03;;;11.23
69857;BMP280;57147;53.582;10.112;2024-02-16T00:46:32;100782.06;;;11.19
69857;BMP280;57147;53.582;10.112;2024-02-16T00:51:32;100771.59;;;11.22
69857;BMP280;57147;53.582;10.112;2024-02-16T00:56:33;100765.50;;;11.22
69857;BMP280;57147;53.582;10.112;2024-02-16T01:01:33;100765.38;;;11.13
69857;BMP280;57147;53.582;10.112;2024-02-16T01:06:33;100786.16;;;11.11
69857;BMP280;57147;53.582;10.112;2024-02-16T01:11:33;100768.41;;;11.06
69857;BMP280;57147;53.582;10.112;2024-02-16T01:16:34;100753.06;;;11.03
69857;BMP280;57147;53.582;10.112;2024-02-16T01:21:34;100753.94;;;10.99
69857;BMP280;57147;53.582;10.112;2024-02-16T01:26:34;100768.38;;;10.93
69857;BMP280;57147;53.582;10.112;2024-02-16T01:31:34;100771.16;;;10.88
69857;BMP280;57147;53.582;10.112;2024-02-16T01:36:35;100762.22;;;10.84
69857;BMP280;57147;53.582;10.112;2024-02-16T01:41:38;100756.38;;;10.82
69857;BMP280;57147;53.582;10.112;2024-02-16T01:46:39;100760.69;;;10.78
69857;BMP280;57147;53.582;10.112;2024-02-16T01:51:39;100745.91;;;10.71
69857;BMP280;57147;53.582;10.112;2024-02-16T01:56:40;100754.59;;;10.77
69857;BMP280;57147;53.582;10.112;2024-02-16T02:01:40;100749.28;;;10.77
69857;BMP280;57147;53.582;10.112;2024-02-16T02:06:40;100745.91;;;10.71
69857;BMP280;57147;53.582;10.112;2024-02-16T02:11:41;100705.19;;;10.62
69857;BMP280;57147;53.582;10.112;2024-02-16T02:16:41;100714.06;;;10.71
69857;BMP280;57147;53.582;10.112;2024-02-16T02:21:41;100709.25;;;10.73
69857;BMP280;57147;53.582;10.112;2024-02-16T02:26:41;100699.69;;;10.72
69857;BMP280;57147;53.582;10.112;2024-02-16T02:31:42;100691.44;;;10.74
69857;BMP280;57147;53.582;10.112;2024-02-16T02:36:42;100687.50;;;10.71
69857;BMP280;57147;53.582;10.112;2024-02-16T02:41:42;100694.50;;;10.67
69857;BMP280;57147;53.582;10.112;2024-02-16T02:46:42;100684.94;;;10.66
69857;BMP280;57147;53.582;10.112;2024-02-16T02:51:43;100677.06;;;10.61
69857;BMP280;57147;53.582;10.112;2024-02-16T02:56:43;100682.06;;;10.63
69857;BMP280;57147;53.582;10.112;2024-02-16T03:01:43;100682.16;;;10.58
69857;BMP280;57147;53.582;10.112;2024-02-16T03:06:44;100662.50;;;10.59
69857;BMP280;57147;53.582;10.112;2024-02-16T03:11:44;100660.34;;;10.61
69857;BMP280;57147;53.582;10.112;2024-02-16T03:16:44;100659.06;;;10.58
69857;BMP280;57147;53.582;10.112;2024-02-16T03:21:46;100656.63;;;10.62
69857;BMP280;57147;53.582;10.112;2024-02-16T03:26:50;100649.91;;;10.64
69857;BMP280;57147;53.582;10.112;2024-02-16T03:31:50;100630.84;;;10.62
69857;BMP280;57147;53.582;10.112;2024-02-16T03:36:50;100628.19;;;10.62
69857;BMP280;57147;53.582;10.112;2024-02-16T03:41:50;100630.84;;;10.62
69857;BMP280;57147;53.582;10.112;2024-02-16T03:46:51;100639.91;;;10.61
69857;BMP280;57147;53.582;10.112;2024-02-16T03:51:51;100631.94;;;10.61
69857;BMP280;57147;53.582;10.112;2024-02-16T03:56:54;100640.47;;;10.58
69857;BMP280;57147;53.582;10.112;2024-02-16T04:01:54;100633.06;;;10.55
69857;BMP280;57147;53.582;10.112;2024-02-16T04:06:55;100638.59;;;10.59
69857;BMP280;57147;53.582;10.112;2024-02-16T04:11:55;100636.50;;;10.56
69857;BMP280;57147;53.582;10.112;2024-02-16T04:16:55;100635.94;;;10.59
69857;BMP280;57147;53.582;10.112;2024-02-16T04:21:55;100623.63;;;10.49
69857;BMP280;57147;53.582;10.112;2024-02-16T04:26:56;100625.09;;;10.55
69857;BMP280;57147;53.582;10.112;2024-02-16T04:31:56;100621.97;;;10.53
69857;BMP280;57147;53.582;10.112;2024-02-16T04:36:56;100619.59;;;10.52
69857;BMP280;57147;53.582;10.112;2024-02-16T04:41:56;100622.47;;;10.55
69857;BMP280;57147;53.582;10.112;2024-02-16T04:46:57;100618.66;;;10.61
69857;BMP280;57147;53.582;10.112;2024-02-16T04:51:57;100570.38;;;10.27
69857;BMP280;57147;53.582;10.112;2024-02-16T04:56:57;100631.22;;;10.56
69857;BMP280;57147;53.582;10.112;2024-02-16T05:01:58;100621.75;;;10.50
69857;BMP280;57147;53.582;10.112;2024-02-16T05:06:58;100624.91;;;10.52
69857;BMP280;57147;53.582;10.112;2024-02-16T05:11:58;100605.03;;;10.49
69857;BMP280;57147;53.582;10.112;2024-02-16T05:16:59;100609.00;;;10.52
69857;BMP280;57147;53.582;10.112;2024-02-16T05:21:59;100602.47;;;10.44
69857;BMP280;57147;53.582;10.112;2024-02-16T05:26:59;100599.31;;;10.42
69857;BMP280;57147;53.582;10.112;2024-02-16T05:31:59;100608.28;;;10.46
69857;BMP280;57147;53.582;10.112;2024-02-16T05:36:59;100601.13;;;10.47
69857;BMP280;57147;53.582;10.112;2024-02-16T05:42:00;100588.53;;;10.39
69857;BMP280;57147;53.582;10.112;2024-02-16T05:47:00;100583.22;;;10.39
69857;BMP280;57147;53.582;10.112;2024-02-16T05:52:00;100595.19;;;10.36
69857;BMP280;57147;53.582;10.112;2024-02-16T05:57:01;100604.22;;;10.35
69857;BMP280;57147;53.582;10.112;2024-02-16T06:02:01;100600.00;;;10.34
69857;BMP280;57147;53.582;10.112;2024-02-16T06:07:01;100615.44;;;10.32
69857;BMP280;57147;53.582;10.112;2024-02-16T06:12:05;100615.91;;;10.34
69857;BMP280;57147;53.582;10.112;2024-02-16T06:17:05;100615.44;;;10.32
69857;BMP280;57147;53.582;10.112;2024-02-16T06:22:05;100612.78;;;10.32
69857;BMP280;57147;53.582;10.112;2024-02-16T06:27:06;100613.84;;;10.31
69857;BMP280;57147;53.582;10.112;2024-02-16T06:32:06;100609.72;;;10.25
69857;BMP280;57147;53.582;10.112;2024-02-16T06:37:06;100603.41;;;10.21
69857;BMP280;57147;53.582;10.112;2024-02-16T06:42:06;100605.84;;;10.17
69857;BMP280;57147;53.582;10.112;2024-02-16T06:47:07;100619.41;;;10.16
69857;BMP280;57147;53.582;10.112;2024-02-16T06:52:07;100623.41;;;10.13
69857;BMP280;57147;53.582;10.112;2024-02-16T06:57:07;100619.97;;;10.13
69857;BMP280;57147;53.582;10.112;2024-02-16T07:02:08;100618.09;;;10.13
69857;BMP280;57147;53.582;10.112;2024-02-16T07:07:08;100619.47;;;10.11
69857;BMP280;57147;53.582;10.112;2024-02-16T07:12:08;100610.25;;;10.08
69857;BMP280;57147;53.582;10.112;2024-02-16T07:17:08;100620.34;;;10.06
69857;BMP280;57147;53.582;10.112;2024-02-16T07:22:09;100639.69;;;10.07
69857;BMP280;57147;53.582;10.112;2024-02-16T07:27:09;100643.66;;;10.09
69857;BMP280;57147;53.582;10.112;2024-02-16T07:32:09;100642.84;;;10.09
69857;BMP280;57147;53.582;10.112;2024-02-16T07:37:09;100638.75;;;10.16
69857;BMP280;57147;53.582;10.112;2024-02-16T07:42:10;100643.47;;;10.19
69857;BMP280;57147;53.582;10.112;2024-02-16T07:47:10;100638.81;;;10.30
69857;BMP280;57147;53.582;10.112;2024-02-16T07:52:10;100553.59;;;9.85
69857;BMP280;57147;53.582;10.112;2024-02-16T07:57:10;100652.63;;;10.46
69857;BMP280;57147;53.582;10.112;2024-02-16T08:02:11;100648.53;;;10.53
69857;BMP280;57147;53.582;10.112;2024-02-16T08:07:11;100648.53;;;10.53
69857;BMP280;57147;53.582;10.112;2024-02-16T08:12:12;100649.50;;;10.57
69857;BMP280;57147;53.582;10.112;2024-02-16T08:17:12;100637.16;;;10.66
69857;BMP280;57147;53.582;10.112;2024-02-16T08:22:12;100660.28;;;10.80
69857;BMP280;57147;53.582;10.112;2024-02-16T08:27:13;100642.38;;;10.85
69857;BMP280;57147;53.582;10.112;2024-02-16T08:32:13;100622.41;;;10.88
69857;BMP280;57147;53.582;10.112;2024-02-16T08:37:14;100590.94;;;10.81
69857;BMP280;57147;53.582;10.112;2024-02-16T08:42:14;100627.72;;;11.01
69857;BMP280;57147;53.582;10.112;2024-02-16T08:47:14;100641.50;;;11.03
69857;BMP280;57147;53.582;10.112;2024-02-16T08:52:15;100660.66;;;11.00
69857;BMP280;57147;53.582;10.112;2024-02-16T08:57:15;100643.94;;;11.00
69857;BMP280;57147;53.582;10.112;2024-02-16T09:02:15;100645.41;;;11.06
69857;BMP280;57147;53.582;10.112;2024-02-16T09:07:15;100649.19;;;11.05
69857;BMP280;57147;53.582;10.112;2024-02-16T09:12:16;100642.69;;;11.11
69857;BMP280;57147;53.582;10.112;2024-02-16T09:17:16;100626.13;;;11.14
69857;BMP280;57147;53.582;10.112;2024-02-16T09:22:16;100629.69;;;11.23
69857;BMP280;57147;53.582;10.112;2024-02-16T09:27:17;100622.22;;;11.25
69857;BMP280;57147;53.582;10.112;2024-02-16T09:32:17;100634.31;;;11.31
69857;BMP280;57147;53.582;10.112;2024-02-16T09:37:17;100621.47;;;11.33
69857;BMP280;57147;53.582;10.112;2024-02-16T09:42:17;100629.47;;;11.33
69857;BMP280;57147;53.582;10.112;2024-02-16T09:47:20;100623.94;;;11.43
69857;BMP280;57147;53.582;10.112;2024-02-16T09:52:22;100641.84;;;11.51
69857;BMP280;57147;53.582;10.112;2024-02-16T09:57:22;100628.06;;;11.49
69857;BMP280;57147;53.582;10.112;2024-02-16T10:02:23;100644.00;;;11.63
69857;BMP280;57147;53.582;10.112;2024-02-16T10:07:32;100643.34;;;11.80
69857;BMP280;57147;53.582;10.112;2024-02-16T10:12:32;100671.09;;;11.87
69857;BMP280;57147;53.582;10.112;2024-02-16T10:17:32;100672.44;;;11.99
69857;BMP280;57147;53.582;10.112;2024-02-16T10:22:33;100685.81;;;12.07
69857;BMP280;57147;53.582;10.112;2024-02-16T10:27:33;100679.28;;;12.13
69857;BMP280;57147;53.582;10.112;2024-02-16T10:32:34;100694.97;;;12.37
69857;BMP280;57147;53.582;10.112;2024-02-16T10:37:34;100714.63;;;12.50
69857;BMP280;57147;53.582;10.112;2024-02-16T10:42:35;100734.88;;;12.59
69857;BMP280;57147;53.582;10.112;2024-02-16T10:47:36;100742.91;;;12.68
69857;BMP280;57147;53.582;10.112;2024-02-16T10:52:41;100734.88;;;12.59
69857;BMP280;57147;53.582;10.112;2024-02-16T10:57:44;100757.72;;;12.83
69857;BMP280;57147;53.582;10.112;2024-02-16T11:02:55;100753.72;;;12.94
69857;BMP280;57147;53.582;10.112;2024-02-16T11:08:03;100758.66;;;13.09
69857;BMP280;57147;53.582;10.112;2024-02-16T11:13:04;100763.91;;;13.23
69857;BMP280;57147;53.582;10.112;2024-02-16T11:18:04;100756.69;;;13.32
69857;BMP280;57147;53.582;10.112;2024-02-16T11:23:11;100781.03;;;13.39
69857;BMP280;57147;53.582;10.112;2024-02-16T11:28:11;100783.75;;;13.56
69857;BMP280;57147;53.582;10.112;2024-02-16T11:33:13;100791.31;;;13.71
69857;BMP280;57147;53.582;10.112;2024-02-16T11:38:13;100791.63;;;13.78
69857;BMP280;57147;53.582;10.112;2024-02-16T11:43:20;100798.53;;;13.79
69857;BMP280;57147;53.582;10.112;2024-02-16T11:48:25;100811.13;;;13.87
69857;BMP280;57147;53.582;10.112;2024-02-16T11:53:26;100815.22;;;13.93
69857;BMP280;57147;53.582;10.112;2024-02-16T11:58:27;100822.44;;;14.01
69857;BMP280;57147;53.582;10.112;2024-02-16T12:03:28;100841.00;;;14.07
69857;BMP280;57147;53.582;10.112;2024-02-16T12:08:33;100821.53;;;14.15
69857;BMP280;57147;53.582;10.112;2024-02-16T12:13:33;100813.53;;;14.15
69857;BMP280;57147;53.582;10.112;2024-02-16T12:18:33;100811.78;;;14.01
69857;BMP280;57147;53.582;10.112;2024-02-16T12:23:34;100798.91;;;14.03
69857;BMP280;57147;53.582;10.112;2024-02-16T12:28:35;100803.78;;;14.19
69857;BMP280;57147;53.582;10.112;2024-02-16T12:33:35;100827.66;;;14.24
69857;BMP280;57147;53.582;10.112;2024-02-16T12:38:35;100816.81;;;14.12
69857;BMP280;57147;53.582;10.112;2024-02-16T12:43:36;100821.38;;;14.20
69857;BMP280;57147;53.582;10.112;2024-02-16T12:48:36;100833.00;;;14.24
69857;BMP280;57147;53.582;10.112;2024-02-16T12:53:36;100825.63;;;14.21
69857;BMP280;57147;53.582;10.112;2024-02-16T12:58:37;100839.75;;;14.30
69857;BMP280;57147;53.582;10.112;2024-02-16T13:03:38;100839.75;;;14.30
69857;BMP280;57147;53.582;10.112;2024-02-16T13:08:38;100847.00;;;14.21
69857;BMP280;57147;53.582;10.112;2024-02-16T13:13:38;100825.75;;;13.98
69857;BMP280;57147;53.582;10.112;2024-02-16T13:18:39;100815.22;;;13.93
69857;BMP280;57147;53.582;10.112;2024-02-16T13:23:39;100825.88;;;13.76
69857;BMP280;57147;53.582;10.112;2024-02-16T13:28:39;100822.88;;;13.78
69857;BMP280;57147;53.582;10.112;2024-02-16T13:33:39;100829.97;;;13.82
69857;BMP280;57147;53.582;10.112;2024-02-16T13:38:40;100822.06;;;13.77
69857;BMP280;57147;53.582;10.112;2024-02-16T13:43:40;100828.25;;;13.86
69857;BMP280;57147;53.582;10.112;2024-02-16T13:48:40;100821.31;;;13.85
69857;BMP280;57147;53.582;10.112;2024-02-16T13:53:40;100815.22;;;13.93
69857;BMP280;57147;53.582;10.112;2024-02-16T13:58:41;100827.78;;;14.01
69857;BMP280;57147;53.582;10.112;2024-02-16T14:03:41;100832.69;;;13.99
69857;BMP280;57147;53.582;10.112;2024-02-16T14:08:41;100800.63;;;13.82
69857;BMP280;57147;53.582;10.112;2024-02-16T14:13:42;100838.81;;;14.09
69857;BMP280;57147;53.582;10.112;2024-02-16T14:18:42;100832.50;;;13.96
69857;BMP280;57147;53.582;10.112;2024-02-16T14:23:42;100840.34;;;13.92
69857;BMP280;57147;53.582;10.112;2024-02-16T14:28:42;100844.09;;;13.91
69857;BMP280;57147;53.582;10.112;2024-02-16T14:33:43;100853.22;;;13.90
69857;BMP280;57147;53.582;10.112;2024-02-16T14:38:43;100856.03;;;13.85
69857;BMP280;57147;53.582;10.112;2024-02-16T14:43:44;100858.84;;;13.80
69857;BMP280;57147;53.582;10.112;2024-02-16T14:48:44;100857.06;;;13.67
69857;BMP280;57147;53.582;10.112;2024-02-16T14:53:44;100850.28;;;13.61
69857;BMP280;57147;53.582;10.112;2024-02-16T14:58:44;100848.53;;;13.56
69857;BMP280;57147;53.582;10.112;2024-02-16T15:03:45;100849.16;;;13.45
69857;BMP280;57147;53.582;10.112;2024-02-16T15:08:45;100849.78;;;13.42
69857;BMP280;57147;53.582;10.112;2024-02-16T15:13:45;100844.69;;;13.32
69857;BMP280;57147;53.582;10.112;2024-02-16T15:18:45;100824.25;;;13.18
69857;BMP280;57147;53.582;10.112;2024-02-16T15:23:46;100807.16;;;13.19
69857;BMP280;57147;53.582;10.112;2024-02-16T15:28:46;100800.16;;;13.01
69857;BMP280;57147;53.582;10.112;2024-02-16T15:33:46;100799.81;;;12.94
69857;BMP280;57147;53.582;10.112;2024-02-16T15:38:47;100791.59;;;12.82
69857;BMP280;57147;53.582;10.112;2024-02-16T15:43:47;100801.56;;;12.76
69857;BMP280;57147;53.582;10.112;2024-02-16T15:48:48;100800.44;;;12.69
69857;BMP280;57147;53.582;10.112;2024-02-16T15:53:48;100814.22;;;12.62
69857;BMP280;57147;53.582;10.112;2024-02-16T15:58:48;100821.16;;;12.50
69857;BMP280;57147;53.582;10.112;2024-02-16T16:03:48;100821.75;;;12.47
69857;BMP280;57147;53.582;10.112;2024-02-16T16:08:49;100831.03;;;12.49
69857;BMP280;57147;53.582;10.112;2024-02-16T16:13:49;100855.41;;;12.43
69857;BMP280;57147;53.582;10.112;2024-02-16T16:18:49;100886.47;;;12.33
69857;BMP280;57147;53.582;10.112;2024-02-16T16:23:50;100887.25;;;12.20
69857;BMP280;57147;53.582;10.112;2024-02-16T16:28:50;100890.94;;;11.97
69857;BMP280;57147;53.582;10.112;2024-02-16T16:33:50;100897.44;;;11.64
69857;BMP280;57147;53.582;10.112;2024-02-16T16:38:51;100902.59;;;11.41
69857;BMP280;57147;53.582;10.112;2024-02-16T16:43:51;100906.50;;;11.30
69857;BMP280;57147;53.582;10.112;2024-02-16T16:48:51;100905.28;;;11.23
69857;BMP280;57147;53.582;10.112;2024-02-16T16:53:51;100915.28;;;11.12
69857;BMP280;57147;53.582;10.112;2024-02-16T16:58:52;100924.59;;;11.28
69857;BMP280;57147;53.582;10.112;2024-02-16T17:03:52;100922.03;;;11.04
69857;BMP280;57147;53.582;10.112;2024-02-16T17:08:53;100919.47;;;10.81
69857;BMP280;57147;53.582;10.112;2024-02-16T17:13:53;100924.91;;;10.70
69857;BMP280;57147;53.582;10.112;2024-02-16T17:18:53;100945.28;;;10.56
69857;BMP280;57147;53.582;10.112;2024-02-16T17:23:54;100954.44;;;10.45
69857;BMP280;57147;53.582;10.112;2024-02-16T17:28:54;100964.59;;;10.38
69857;BMP280;57147;53.582;10.112;2024-02-16T17:33:54;100972.50;;;10.43
69857;BMP280;57147;53.582;10.112;2024-02-16T17:38:54;100982.22;;;10.53
69857;BMP280;57147;53.582;10.112;2024-02-16T17:43:55;100990.28;;;10.43
69857;BMP280;57147;53.582;10.112;2024-02-16T17:48:55;101006.94;;;10.48
69857;BMP280;57147;53.582;10.112;2024-02-16T17:53:55;101023.56;;;10.35
69857;BMP280;57147;53.582;10.112;2024-02-16T17:58:55;101037.88;;;10.34
69857;BMP280;57147;53.582;10.112;2024-02-16T18:03:56;101050.84;;;10.41
69857;BMP280;57147;53.582;10.112;2024-02-16T18:08:56;101063.94;;;10.32
69857;BMP280;57147;53.582;10.112;2024-02-16T18:13:57;101069.59;;;10.20
69857;BMP280;57147;53.582;10.112;2024-02-16T18:18:57;101079.09;;;10.26
69857;BMP280;57147;53.582;10.112;2024-02-16T18:23:57;101104.38;;;10.19
69857;BMP280;57147;53.582;10.112;2024-02-16T18:28:57;101108.09;;;10.18
69857;BMP280;57147;53.582;10.112;2024-02-16T18:33:58;101111.72;;;10.27
69857;BMP280;57147;53.582;10.112;2024-02-16T18:38:58;101118.63;;;10.28
69857;BMP280;57147;53.582;10.112;2024-02-16T18:43:58;101138.28;;;10.27
69857;BMP280;57147;53.582;10.112;2024-02-16T18:48:58;101150.47;;;10.28
69857;BMP280;57147;53.582;10.112;2024-02-16T18:53:58;101159.06;;;10.15
69857;BMP280;57147;53.582;10.112;2024-02-16T18:58:59;101164.44;;;10.10
69857;BMP280;57147;53.582;10.112;2024-02-16T19:04:00;101192.50;;;10.16
69857;BMP280;57147;53.582;10.112;2024-02-16T19:09:01;101210.06;;;10.07
69857;BMP280;57147;53.582;10.112;2024-02-16T19:14:01;101213.78;;;10.06
69857;BMP280;57147;53.582;10.112;2024-02-16T19:19:01;101225.94;;;10.12
69857;BMP280;57147;53.582;10.112;2024-02-16T19:24:02;101210.13;;;9.97
69857;BMP280;57147;53.582;10.112;2024-02-16T19:29:03;101245.69;;;10.01
69857;BMP280;57147;53.582;10.112;2024-02-16T19:34:03;101241.44;;;10.00
69857;BMP280;57147;53.582;10.112;2024-02-16T19:39:04;101251.53;;;9.98
69857;BMP280;57147;53.582;10.112;2024-02-16T19:44:04;101257.31;;;10.05
69857;BMP280;57147;53.582;10.112;2024-02-16T19:49:04;101237.22;;;9.88
69857;BMP280;57147;53.582;10.112;2024-02-16T19:54:04;101256.16;;;10.21
69857;BMP280;57147;53.582;10.112;2024-02-16T19:59:04;101275.78;;;10.20
69857;BMP280;57147;53.582;10.112;2024-02-16T20:04:06;101279.75;;;10.22
69857;BMP280;57147;53.582;10.112;2024-02-16T20:09:06;101287.38;;;10.39
69857;BMP280;57147;53.582;10.112;2024-02-16T20:14:06;101283.13;;;10.38
69857;BMP280;57147;53.582;10.112;2024-02-16T20:19:07;101303.94;;;10.11
69857;BMP280;57147;53.582;10.112;2024-02-16T20:24:07;101326.47;;;10.18
69857;BMP280;57147;53.582;10.112;2024-02-16T20:29:07;101333.75;;;10.03
69857;BMP280;57147;53.582;10.112;2024-02-16T20:34:08;101330.88;;;9.94
69857;BMP280;57147;53.582;10.112;2024-02-16T20:39:08;101333.28;;;9.85
69857;BMP280;57147;53.582;10.112;2024-02-16T20:44:08;101293.03;;;9.53
69857;BMP280;57147;53.582;10.112;2024-02-16T20:49:09;101353.13;;;9.88
69857;BMP280;57147;53.582;10.112;2024-02-16T20:54:09;101320.81;;;9.86
69857;BMP280;57147;53.582;10.112;2024-02-16T20:59:09;101367.13;;;10.09
69857;BMP280;57147;53.582;10.112;2024-02-16T21:04:10;101296.19;;;9.60
69857;BMP280;57147;53.582;10.112;2024-02-16T21:09:10;101374.53;;;10.12
69857;BMP280;57147;53.582;10.112;2024-02-16T21:14:10;101351.81;;;9.90
69857;BMP280;57147;53.582;10.112;2024-02-16T21:19:11;101369.31;;;10.02
69857;BMP280;57147;53.582;10.112;2024-02-16T21:24:11;101359.69;;;10.06
69857;BMP280;57147;53.582;10.112;2024-02-16T21:29:11;101373.56;;;9.98
69857;BMP280;57147;53.582;10.112;2024-02-16T21:34:12;101381.72;;;10.06
69857;BMP280;57147;53.582;10.112;2024-02-16T21:39:12;101372.41;;;10.14
69857;BMP280;57147;53.582;10.112;2024-02-16T21:44:13;101345.47;;;9.86
69857;BMP280;57147;53.582;10.112;2024-02-16T21:49:13;101385.66;;;10.24
69857;BMP280;57147;53.582;10.112;2024-02-16T21:54:13;101398.88;;;10.34
69857;BMP280;57147;53.582;10.112;2024-02-16T21:59:13;101409.50;;;10.34
69857;BMP280;57147;53.582;10.112;2024-02-16T22:04:14;101403.72;;;10.17
69857;BMP280;57147;53.582;10.112;2024-02-16T22:09:14;101405.91;;;10.05
69857;BMP280;57147;53.582;10.112;2024-02-16T22:14:14;101414.88;;;10.14
69857;BMP280;57147;53.582;10.112;2024-02-16T22:19:15;101430.34;;;10.02
69857;BMP280;57147;53.582;10.112;2024-02-16T22:24:15;101432.69;;;10.03
69857;BMP280;57147;53.582;10.112;2024-02-16T22:29:15;101440.44;;;9.95
69857;BMP280;57147;53.582;10.112;2024-02-16T22:34:15;101440.91;;;10.07
69857;BMP280;57147;53.582;10.112;2024-02-16T22:39:16;101447.25;;;10.06
69857;BMP280;57147;53.582;10.112;2024-02-16T22:44:16;101457.91;;;10.01
69857;BMP280;57147;53.582;10.112;2024-02-16T22:49:16;101456.81;;;10.07
69857;BMP280;57147;53.582;10.112;2024-02-16T22:54:17;101463.75;;;10.03
69857;BMP280;57147;53.582;10.112;2024-02-16T22:59:17;101478.59;;;10.04
69857;BMP280;57147;53.582;10.112;2024-02-16T23:04:17;101476.50;;;10.01
69857;BMP280;57147;53.582;10.112;2024-02-16T23:09:18;101484.72;;;9.99
69857;BMP280;57147;53.582;10.112;2024-02-16T23:14:18;101490.28;;;9.98
69857;BMP280;57147;53.582;10.112;2024-02-16T23:19:18;101497.44;;;9.92
69857;BMP280;57147;53.582;10.112;2024-02-16T23:24:18;101501.97;;;9.91
69857;BMP280;57147;53.582;10.112;2024-02-16T23:29:19;101504.34;;;9.83
69857;BMP280;57147;53.582;10.112;2024-02-16T23:34:19;101504.88;;;9.85
69857;BMP280;57147;53.582;10.112;2024-02-16T23:39:19;101517.88;;;9.86
69857;BMP280;57147;53.582;10.112;2024-02-16T23:44:19;101531.41;;;9.85
69857;BMP280;57147;53.582;10.112;2024-02-16T23:49:20;101531.16;;;9.86
69857;BMP280;57147;53.582;10.112;2024-02-16T23:54:20;101538.56;;;9.89
69857;BMP280;57147;53.582;10.112;2024-02-16T23:59:20;101540.16;;;9.90
